Zoar, OH (44697)

12:36 PM EST on February 08, 2016 (GMT -0500)
Fox Chase | | Change Station
CLOSE
Current Station
Personal Weather Station
Location: Dover, OH
Elevation: 994 ft
Nearby Weather Stations

Elev 994 ft 40.54 °N, 81.41 °W | Updated 8 minutes ago

Snow
Snow
34.3 °F
Feels Like 32 °F
N
3.2
Wind Variable Wind from SSW

Today
High -- | Low -- °F
--% Chance of Precip.
Yesterday
High -- | Low -- °F
Precip. -- in
Pressure 29.59 in
Visibility 1.2 miles
Clouds Mostly Cloudy 300 ft
Overcast 1000 ft
Windchill 32 °F
Dew Point 33 °F
Humidity 94%
Rainfall 0.00 in
Snow Depth Not available.
7:28 AM 5:51 PM
New Moon, 0% visible
SPECI KPHD 081711Z AUTO 15004KT 1 1/4SM -SN BR BKN003 OVC010 01/00 A2959 RMK AO2 P0001 T00060000
Pressure 29.59 in
Visibility 1.2 miles
Clouds Mostly Cloudy 300 ft
Overcast 1000 ft
Windchill 32 °F
Dew Point 33 °F
Humidity 94%
Rainfall 0.00 in
Snow Depth Not available.
7:28 AM 5:51 PM
New Moon, 0% visible
SPECI KPHD 081711Z AUTO 15004KT 1 1/4SM -SN BR BKN003 OVC010 01/00 A2959 RMK AO2 P0001 T00060000

10-Day Weather Forecast

Almanac

Astronomy

Feb. 08, 2016 Rise Set
Actual Time
Civil Twilight
Nautical Twilight
Astronomical Twilight
Moon
Length of Visible Light
Length of Day
Tomorrow will be .
, % of the Moon is Illuminated

Today's Extremes

State Highs State Lows

Community

WunderPhotos

Upload Photos

1,891,473 photos uploaded!

WunderBlog® & News

Nearby

Air Quality

  Air Quality AQ Index Pollutant
Not available.

Snow Depth

Station Depth Elevation

Earthquake Activity

City Distance Mag. Time & Date
Minimum magnitude displayed is 2.5.

Coastal Water Temperatures

Place Temperature

Stations

Nearby Weather Stations

Station Location Temp. Windchill Dew Point Humidity Wind Precip. Elev Updated Type
                   

Watches & Warnings

There are currently no watches in effect.